Historique des mesures à Cassis (13260), France
Quotidien Résumé Mars 23, 2017 Unités:  US    Métrique   Métrique/US
« Précédent (Jour)
Suivant (Jour) »
Quotidien Hebdomadaire Mensuel Annuel Période au choix
  Maximum: Minimum: Moyenne:
Température: 32 °F 55 °F 57.4 °F
Point de rosée: 32 °F 50.7 °F 52 °F
Humidité: Humidity % 76 % 78 %
Vitesse du vent: WindSpeedKMH mph 0.0 mph 5.6 mph
Rafales: WindSpeedGustKMH mph - -
Vent:- - SSE
Pression: 0 in 29.7 in -
Précipitations: 200.66 in    
Historical Graphs
 
 
Mesures pour : Mars 23, 2017
Heure Temperature Point de rosée Pression Vent Vitesse du vent Rafales Humidité Pluie (par heure) Conditions
32 °F 32 °F 0 in Calm     Humidity % 0 in SoftwareType W/m2
00:11 57.6 °F 50.7 °F 29.8 in South 18.7 mph 18.7 mph 78 % 0 in open2300-1.11 W/m2
01:10 57.6 °F 51.1 °F 29.8 in Calm   9.7 mph 79 % 0 in open2300-1.11 W/m2
02:11 56.8 °F 51.4 °F 29.8 in Calm     82 % 50.8 in open2300-1.11 W/m2
03:10 56.8 °F 52 °F 29.8 in NW 1.8 mph 1.8 mph 84 % 0 in open2300-1.11 W/m2
04:11 56.8 °F 52.3 °F 29.7 in WNW 2.9 mph 2.9 mph 85 % 12.7 in open2300-1.11 W/m2
05:10 56.8 °F 52.7 °F 29.7 in Calm   4.7 mph 86 % 0 in open2300-1.11 W/m2
06:11 56.8 °F 52.7 °F 29.8 in SSE 2.6 mph 2.6 mph 86 % 0 in open2300-1.11 W/m2
07:10 56.8 °F 52.7 °F 29.8 in SE 3.5 mph 6.1 mph 86 % 0 in open2300-1.11 W/m2
08:11 56.8 °F 52.3 °F 29.8 in Calm   6.8 mph 85 % 0 in open2300-1.11 W/m2
09:10 57.6 °F 52.7 °F 29.8 in ESE 1.4 mph 6.4 mph 84 % 0 in open2300-1.11 W/m2
10:11 58.5 °F 53.2 °F 29.8 in West 11.1 mph 11.1 mph 83 % 0 in open2300-1.11 W/m2
11:10 59.5 °F 54.1 °F 29.8 in SSE 6.1 mph 8.2 mph 82 % 0 in open2300-1.11 W/m2
12:11 60.1 °F 54 °F 29.8 in SSE 11.9 mph 11.9 mph 80 % 0 in open2300-1.11 W/m2
13:10 61.3 °F 55.2 °F 29.8 in ESE 26.5 mph 26.5 mph 80 % 0 in open2300-1.11 W/m2
14:11 61.5 °F 55 °F 29.8 in East 4.7 mph 6.8 mph 79 % 0 in open2300-1.11 W/m2
15:10 61.5 °F 54.1 °F 29.8 in NE 2.1 mph 6.8 mph 77 % 0 in open2300-1.11 W/m2
16:11 61.3 °F 53.8 °F 29.8 in SSW 7.9 mph 7.9 mph 76 % 0 in open2300-1.11 W/m2
17:10 60.6 °F 53.1 °F 29.8 in Calm   2.9 mph 76 % 0 in open2300-1.11 W/m2
18:11 59.5 °F 52.7 °F 29.8 in SE 6.1 mph 6.1 mph 78 % 0 in open2300-1.11 W/m2
19:11 59.2 °F 52.7 °F 29.8 in ESE 9.7 mph 9.7 mph 79 % 0 in open2300-1.11 W/m2
20:11 58.8 °F 53.1 °F 29.9 in SE 8.7 mph 8.7 mph 81 % 0 in open2300-1.11 W/m2
21:10 57.6 °F 52.3 °F 29.9 in SE 9.3 mph 9.3 mph 83 % 12.7 in open2300-1.11 W/m2
22:11 55.9 °F 51.1 °F 29.9 in SE 2.1 mph 5.8 mph 84 % 25.4 in open2300-1.11 W/m2
23:10 55 °F 50.9 °F 29.9 in South 2.1 mph 5.8 mph 86 % 91.44 in open2300-1.11 W/m2
Observations météo à CASSIS
WU-History script by Weather Underground - 1 mb